createdAt,value
2018-11-07T00:02:03.790Z,100.00
2018-11-07T00:04:31.846Z,100.00
2018-11-07T00:06:59.865Z,100.00
2018-11-07T00:09:27.874Z,100.00
2018-11-07T00:11:55.895Z,100.00
2018-11-07T00:14:23.957Z,100.00
2018-11-07T00:16:51.967Z,100.00
2018-11-07T00:19:20.003Z,100.00
2018-11-07T00:21:48.038Z,100.00
2018-11-07T00:24:16.084Z,100.00
2018-11-07T00:26:44.172Z,100.00
2018-11-07T00:29:12.211Z,100.00
2018-11-07T00:31:40.307Z,100.00
2018-11-07T00:34:08.338Z,100.00
2018-11-07T00:36:36.481Z,100.00
2018-11-07T00:39:06.837Z,100.00
2018-11-07T00:41:34.874Z,100.00
2018-11-07T00:44:03.001Z,100.00
2018-11-07T00:46:31.012Z,100.00
2018-11-07T00:48:59.173Z,100.00
2018-11-07T00:51:27.271Z,100.00
2018-11-07T00:53:55.339Z,100.00
2018-11-07T00:56:23.353Z,100.00
2018-11-07T00:58:51.457Z,100.00
2018-11-07T01:01:19.429Z,100.00
2018-11-07T01:03:47.519Z,100.00
2018-11-07T01:06:15.615Z,100.00
2018-11-07T01:08:43.739Z,100.00
2018-11-07T01:11:11.783Z,100.00
2018-11-07T01:13:39.863Z,100.00
2018-11-07T01:16:08.095Z,100.00
2018-11-07T01:18:36.336Z,100.00
2018-11-07T01:21:04.664Z,100.00
2018-11-07T01:23:32.684Z,100.00
2018-11-07T01:26:00.710Z,100.00
2018-11-07T01:28:28.754Z,100.00
2018-11-07T01:30:56.786Z,100.00
2018-11-07T01:33:24.830Z,100.00
2018-11-07T01:35:53.022Z,100.00
2018-11-07T01:38:21.061Z,100.00
2018-11-07T01:40:49.132Z,100.00
2018-11-07T01:43:17.189Z,100.00
2018-11-07T01:45:45.265Z,100.00
2018-11-07T01:48:13.271Z,100.00
2018-11-07T01:50:41.329Z,100.00
2018-11-07T01:53:09.389Z,100.00
2018-11-07T01:55:37.449Z,100.00
2018-11-07T01:58:05.681Z,100.00
2018-11-07T02:00:33.745Z,100.00
2018-11-07T02:03:01.795Z,100.00
2018-11-07T02:05:29.949Z,100.00
2018-11-07T02:07:57.930Z,100.00
2018-11-07T02:10:25.954Z,100.00
2018-11-07T02:12:53.938Z,100.00
2018-11-07T02:15:22.085Z,100.00
2018-11-07T02:17:50.137Z,100.00
2018-11-07T02:20:18.209Z,100.00
2018-11-07T02:22:46.279Z,100.00
2018-11-07T02:25:14.317Z,100.00
2018-11-07T02:27:42.334Z,100.00
2018-11-07T02:30:12.776Z,100.00
2018-11-07T02:32:40.798Z,100.00
2018-11-07T02:35:08.872Z,100.00
2018-11-07T02:37:36.886Z,100.00
2018-11-07T02:40:05.380Z,100.00
2018-11-07T02:42:33.460Z,100.00
2018-11-07T02:45:01.448Z,100.00
2018-11-07T02:47:29.512Z,100.00
2018-11-07T02:49:57.532Z,100.00
2018-11-07T02:52:25.553Z,100.00
2018-11-07T02:54:53.546Z,100.00
2018-11-07T02:57:21.545Z,100.00
2018-11-07T02:59:49.553Z,100.00
2018-11-07T03:02:17.567Z,100.00
2018-11-07T03:04:45.510Z,100.00
2018-11-07T03:07:13.459Z,100.00
2018-11-07T03:09:41.325Z,100.00
2018-11-07T03:12:09.238Z,100.00
2018-11-07T03:14:37.164Z,100.00
2018-11-07T03:17:05.321Z,100.00
2018-11-07T03:19:33.210Z,100.00
2018-11-07T03:22:01.131Z,100.00
2018-11-07T03:24:29.021Z,100.00
2018-11-07T03:26:56.961Z,100.00
2018-11-07T03:29:24.913Z,100.00
2018-11-07T03:31:53.012Z,100.00
2018-11-07T03:34:21.018Z,100.00
2018-11-07T03:36:49.007Z,100.00
2018-11-07T03:39:17.012Z,100.00
2018-11-07T03:41:44.995Z,100.00
2018-11-07T03:44:13.071Z,100.00
2018-11-07T03:46:41.144Z,100.00
2018-11-07T03:49:09.328Z,100.00
2018-11-07T03:51:37.401Z,100.00
2018-11-07T03:54:05.321Z,100.00
2018-11-07T03:56:33.338Z,100.00
2018-11-07T03:59:01.375Z,100.00
2018-11-07T04:01:29.390Z,100.00
2018-11-07T04:03:57.424Z,100.00
2018-11-07T04:06:25.492Z,100.00
2018-11-07T04:08:53.452Z,100.00
2018-11-07T04:11:21.472Z,100.00
2018-11-07T04:13:49.481Z,100.00
2018-11-07T04:16:17.565Z,100.00
2018-11-07T04:18:45.567Z,100.00
2018-11-07T04:21:13.941Z,100.00
2018-11-07T04:23:46.393Z,100.00
2018-11-07T04:26:14.377Z,100.00
2018-11-07T04:28:42.395Z,100.00
2018-11-07T04:31:10.345Z,100.00
2018-11-07T04:33:38.349Z,100.00
2018-11-07T04:36:06.338Z,100.00
2018-11-07T04:38:34.382Z,100.00
2018-11-07T04:41:02.374Z,100.00
2018-11-07T04:43:30.330Z,100.00
2018-11-07T04:45:58.297Z,100.00
2018-11-07T04:48:26.251Z,100.00
2018-11-07T04:50:54.194Z,100.00
2018-11-07T04:53:22.481Z,100.00
2018-11-07T04:55:50.491Z,100.00
2018-11-07T04:58:18.449Z,100.00
2018-11-07T05:00:46.387Z,100.00
2018-11-07T05:03:14.381Z,100.00
2018-11-07T05:05:42.340Z,100.00
2018-11-07T05:08:10.249Z,100.00
2018-11-07T05:10:38.243Z,100.00
2018-11-07T05:13:06.205Z,100.00
2018-11-07T05:15:34.772Z,100.00
2018-11-07T05:18:02.808Z,100.00
2018-11-07T05:20:30.774Z,100.00
2018-11-07T05:22:58.949Z,100.00
2018-11-07T05:25:26.984Z,100.00
2018-11-07T05:27:55.004Z,100.00
2018-11-07T05:30:22.965Z,100.00
2018-11-07T05:32:51.049Z,100.00
2018-11-07T05:35:19.029Z,100.00
2018-11-07T05:37:47.089Z,100.00
2018-11-07T05:40:15.205Z,100.00
2018-11-07T05:42:43.551Z,100.00
2018-11-07T05:45:11.598Z,100.00
2018-11-07T05:47:40.163Z,100.00
2018-11-07T05:50:09.266Z,100.00
2018-11-07T05:52:37.788Z,100.00
2018-11-07T05:55:07.119Z,100.00
2018-11-07T05:57:35.229Z,100.00
2018-11-07T06:00:04.224Z,100.00
2018-11-07T06:02:32.342Z,100.00
2018-11-07T06:05:00.505Z,100.00
2018-11-07T06:07:28.721Z,100.00
2018-11-07T06:09:56.800Z,100.00
2018-11-07T06:12:24.901Z,100.00
2018-11-07T06:14:53.019Z,100.00
2018-11-07T06:17:21.090Z,100.00
2018-11-07T06:19:49.191Z,100.00
2018-11-07T06:22:17.297Z,100.00
2018-11-07T06:24:46.015Z,100.00
2018-11-07T06:27:14.164Z,100.00
2018-11-07T06:29:42.304Z,100.00
2018-11-07T06:32:10.383Z,100.00
2018-11-07T06:34:38.580Z,100.00
2018-11-07T06:37:06.805Z,100.00
2018-11-07T06:39:34.882Z,100.00
2018-11-07T06:42:02.918Z,100.00
2018-11-07T06:44:31.790Z,100.00
2018-11-07T06:47:00.113Z,100.00
2018-11-07T06:49:28.455Z,100.00
2018-11-07T06:51:56.484Z,100.00
2018-11-07T06:54:24.502Z,100.00
2018-11-07T06:56:52.550Z,100.00
2018-11-07T06:59:20.538Z,100.00
2018-11-07T07:01:48.544Z,100.00
2018-11-07T07:04:17.144Z,100.00
2018-11-07T07:06:45.151Z,100.00
2018-11-07T07:09:13.343Z,100.00
2018-11-07T07:11:41.618Z,100.00
2018-11-07T07:14:09.760Z,100.00
2018-11-07T07:16:38.327Z,100.00
2018-11-07T07:19:06.410Z,100.00
2018-11-07T07:21:34.757Z,100.00
2018-11-07T07:24:02.886Z,100.00
2018-11-07T07:26:31.062Z,100.00
2018-11-07T07:28:59.066Z,100.00
2018-11-07T07:31:27.014Z,100.00
2018-11-07T07:33:54.991Z,100.00
2018-11-07T07:36:23.097Z,100.00
2018-11-07T07:38:51.244Z,100.00
2018-11-07T07:41:19.682Z,100.00
2018-11-07T07:43:47.923Z,100.00
2018-11-07T07:46:16.032Z,100.00
2018-11-07T07:48:44.222Z,100.00
2018-11-07T07:51:12.271Z,100.00
2018-11-07T07:53:40.293Z,99.92
2018-11-07T07:56:08.500Z,100.00
2018-11-07T07:58:36.603Z,100.00
2018-11-07T08:01:04.744Z,100.00
2018-11-07T08:03:32.841Z,100.00
2018-11-07T08:06:00.985Z,100.00
2018-11-07T08:08:29.187Z,100.00
2018-11-07T08:10:57.771Z,100.00
2018-11-07T08:13:26.476Z,100.00
2018-11-07T08:15:55.101Z,100.00
2018-11-07T08:18:23.606Z,99.58
2018-11-07T08:20:52.243Z,99.09
2018-11-07T08:23:20.681Z,99.68
2018-11-07T08:25:49.028Z,97.01
2018-11-07T08:28:17.630Z,97.55
2018-11-07T08:30:46.370Z,98.02
2018-11-07T08:33:16.098Z,98.27
2018-11-07T08:35:44.586Z,98.50
2018-11-07T08:38:13.685Z,98.76
2018-11-07T08:40:42.192Z,97.87
2018-11-07T08:43:10.701Z,97.17
2018-11-07T08:45:39.320Z,97.08
2018-11-07T08:48:07.844Z,96.47
2018-11-07T08:50:36.716Z,95.26
2018-11-07T08:53:05.411Z,94.15
2018-11-07T08:55:34.411Z,93.77
2018-11-07T08:58:03.054Z,92.26
2018-11-07T09:00:31.842Z,91.30
2018-11-07T09:02:59.932Z,90.37
2018-11-07T09:05:28.047Z,89.74
2018-11-07T09:07:56.213Z,90.10
2018-11-07T09:10:24.693Z,88.32
2018-11-07T09:12:52.893Z,87.75
2018-11-07T09:15:21.990Z,88.64
2018-11-07T09:17:50.130Z,87.61
2018-11-07T09:20:19.571Z,86.48
2018-11-07T09:22:47.681Z,85.67
2018-11-07T09:25:16.233Z,84.47
2018-11-07T09:27:45.185Z,84.08
2018-11-07T09:30:15.807Z,82.19
2018-11-07T09:32:44.426Z,82.14
2018-11-07T09:35:13.151Z,81.49
2018-11-07T09:37:42.168Z,81.37
2018-11-07T09:40:12.790Z,80.69
2018-11-07T09:42:41.843Z,79.01
2018-11-07T09:45:11.919Z,78.98
2018-11-07T09:47:40.977Z,79.43
2018-11-07T09:50:10.140Z,78.36
2018-11-07T09:52:39.041Z,77.87
2018-11-07T09:55:08.968Z,77.35
2018-11-07T09:57:37.608Z,76.97
2018-11-07T10:00:10.258Z,75.79
2018-11-07T10:02:39.196Z,75.45
2018-11-07T10:05:08.678Z,75.47
2018-11-07T10:07:38.075Z,74.07
2018-11-07T10:10:08.570Z,74.53
2018-11-07T10:12:37.324Z,73.27
2018-11-07T10:15:06.783Z,72.54
2018-11-07T10:17:35.312Z,73.47
2018-11-07T10:20:05.312Z,73.35
2018-11-07T10:22:33.733Z,73.68
2018-11-07T10:25:02.177Z,72.20
2018-11-07T10:27:30.682Z,71.48
2018-11-07T10:29:59.672Z,70.09
2018-11-07T10:32:27.947Z,70.69
2018-11-07T10:34:57.137Z,70.05
2018-11-07T10:37:32.367Z,68.90
2018-11-07T10:39:54.722Z,68.52
2018-11-07T10:42:23.190Z,68.60
2018-11-07T10:44:51.609Z,66.69
2018-11-07T10:47:21.119Z,67.18
2018-11-07T10:49:49.915Z,66.01
2018-11-07T10:52:18.338Z,67.11
2018-11-07T10:54:47.416Z,66.72
2018-11-07T10:57:16.348Z,65.78
2018-11-07T10:59:44.715Z,65.79
2018-11-07T11:02:18.876Z,64.63
2018-11-07T11:04:47.316Z,65.65
2018-11-07T11:07:15.689Z,65.62
2018-11-07T11:09:44.111Z,65.23
2018-11-07T11:12:12.450Z,65.53
2018-11-07T11:14:40.875Z,64.94
2018-11-07T11:17:09.258Z,66.06
2018-11-07T11:19:37.640Z,63.95
2018-11-07T11:22:06.469Z,63.70
2018-11-07T11:24:34.843Z,63.18
2018-11-07T11:27:03.489Z,63.18
2018-11-07T11:29:31.944Z,63.64
2018-11-07T11:32:00.565Z,61.97
2018-11-07T11:34:29.803Z,62.63
2018-11-07T11:36:58.184Z,62.42
2018-11-07T11:39:26.875Z,61.53
2018-11-07T11:41:55.168Z,60.91
2018-11-07T11:44:23.443Z,60.26
2018-11-07T11:46:51.757Z,60.87
2018-11-07T11:49:20.637Z,60.37
2018-11-07T11:51:48.922Z,60.70
2018-11-07T11:54:17.233Z,57.35
2018-11-07T11:56:45.516Z,58.15
2018-11-07T11:59:14.045Z,56.40
2018-11-07T12:01:42.390Z,57.25
2018-11-07T12:04:10.701Z,57.33
2018-11-07T12:06:38.876Z,57.49
2018-11-07T12:09:08.535Z,56.94
2018-11-07T12:11:36.783Z,57.10
2018-11-07T12:14:05.069Z,57.85
2018-11-07T12:16:33.823Z,56.10
2018-11-07T12:19:02.139Z,54.71
2018-11-07T12:21:30.421Z,54.77
2018-11-07T12:23:58.743Z,52.64
2018-11-07T12:26:27.015Z,52.72
2018-11-07T12:28:55.307Z,52.32
2018-11-07T12:31:23.752Z,54.46
2018-11-07T12:33:52.016Z,54.23
2018-11-07T12:36:20.119Z,56.36
2018-11-07T12:38:48.404Z,53.15
2018-11-07T12:41:16.531Z,55.25
2018-11-07T12:43:44.661Z,55.40
2018-11-07T12:46:12.736Z,54.26
2018-11-07T12:48:40.886Z,55.04
2018-11-07T12:51:08.955Z,54.01
2018-11-07T12:53:37.173Z,54.72
2018-11-07T12:56:05.732Z,53.59
2018-11-07T12:58:33.781Z,53.46
2018-11-07T13:01:01.934Z,56.13
2018-11-07T13:03:29.999Z,56.74
2018-11-07T13:05:58.019Z,56.23
2018-11-07T13:08:26.112Z,55.63
2018-11-07T13:10:54.153Z,56.35
2018-11-07T13:13:22.074Z,56.83
2018-11-07T13:15:50.014Z,56.75
2018-11-07T13:18:17.972Z,56.37
2018-11-07T13:20:46.048Z,57.62
2018-11-07T13:23:14.044Z,58.43
2018-11-07T13:25:42.086Z,59.41
2018-11-07T13:28:10.167Z,59.02
2018-11-07T13:30:38.172Z,60.26
2018-11-07T13:33:06.211Z,60.69
2018-11-07T13:35:34.189Z,61.23
2018-11-07T13:38:02.243Z,61.36
2018-11-07T13:40:30.389Z,61.88
2018-11-07T13:42:58.455Z,62.47
2018-11-07T13:45:26.502Z,62.99
2018-11-07T13:47:54.886Z,63.75
2018-11-07T13:50:23.025Z,64.98
2018-11-07T13:52:51.152Z,65.37
2018-11-07T13:55:19.174Z,65.81
2018-11-07T13:57:47.241Z,65.75
2018-11-07T14:00:17.698Z,65.89
2018-11-07T14:02:46.280Z,66.87
2018-11-07T14:05:14.350Z,66.80
2018-11-07T14:07:42.366Z,67.11
2018-11-07T14:10:13.844Z,67.56
2018-11-07T14:12:41.932Z,67.69
2018-11-07T14:15:11.947Z,68.49
2018-11-07T14:17:40.029Z,69.07
2018-11-07T14:20:08.238Z,70.05
2018-11-07T14:22:36.286Z,70.75
2018-11-07T14:25:04.545Z,71.43
2018-11-07T14:27:32.744Z,71.95
2018-11-07T14:30:01.083Z,73.15
2018-11-07T14:32:29.727Z,72.74
2018-11-07T14:34:57.726Z,73.23
2018-11-07T14:37:25.704Z,73.82
2018-11-07T14:39:53.763Z,74.54
2018-11-07T14:42:21.801Z,74.69
2018-11-07T14:44:50.075Z,74.96
2018-11-07T14:47:18.182Z,75.76
2018-11-07T14:49:46.142Z,75.90
2018-11-07T14:52:14.125Z,76.38
2018-11-07T14:54:42.157Z,76.92
2018-11-07T14:57:10.183Z,77.42
2018-11-07T14:59:38.191Z,77.14
2018-11-07T15:02:06.633Z,77.59
2018-11-07T15:04:34.716Z,77.76
2018-11-07T15:07:02.781Z,77.92
2018-11-07T15:09:30.855Z,78.67
2018-11-07T15:11:59.067Z,80.18
2018-11-07T15:14:28.047Z,82.13
2018-11-07T15:16:56.169Z,81.05
2018-11-07T15:19:24.372Z,81.26
2018-11-07T15:21:52.522Z,83.34
2018-11-07T15:24:20.576Z,82.98
2018-11-07T15:26:48.588Z,84.06
2018-11-07T15:29:16.699Z,84.72
2018-11-07T15:31:44.860Z,85.13
2018-11-07T15:34:12.946Z,86.14
2018-11-07T15:36:41.017Z,86.78
2018-11-07T15:39:10.200Z,84.45
2018-11-07T15:41:38.496Z,81.36
2018-11-07T15:44:06.612Z,80.59
2018-11-07T15:46:35.358Z,78.99
2018-11-07T15:49:03.448Z,79.74
2018-11-07T15:51:37.458Z,80.64
2018-11-07T15:54:06.152Z,80.75
2018-11-07T15:56:34.602Z,79.60
2018-11-07T15:59:02.997Z,79.40
2018-11-07T16:01:31.300Z,80.41
2018-11-07T16:04:00.773Z,79.75
2018-11-07T16:06:29.077Z,80.93
2018-11-07T16:08:58.453Z,82.27
2018-11-07T16:11:27.914Z,80.12
2018-11-07T16:13:56.294Z,81.73
2018-11-07T16:16:24.822Z,81.45
2018-11-07T16:18:52.891Z,81.97
2018-11-07T16:21:21.088Z,82.83
2018-11-07T16:23:49.238Z,83.38
2018-11-07T16:26:17.325Z,85.12
2018-11-07T16:28:45.417Z,84.25
2018-11-07T16:31:13.481Z,85.43
2018-11-07T16:33:41.961Z,86.27
2018-11-07T16:36:10.118Z,86.61
2018-11-07T16:38:38.373Z,85.84
2018-11-07T16:41:06.928Z,84.65
2018-11-07T16:43:34.977Z,86.36
2018-11-07T16:46:03.082Z,86.42
2018-11-07T16:48:31.297Z,86.11
2018-11-07T16:50:59.495Z,86.78
2018-11-07T16:53:27.621Z,86.01
2018-11-07T16:55:55.673Z,84.68
2018-11-07T16:58:23.774Z,84.21
2018-11-07T17:00:51.868Z,86.00
2018-11-07T17:03:19.925Z,84.66
2018-11-07T17:05:47.936Z,85.96
2018-11-07T17:08:15.956Z,87.15
2018-11-07T17:10:43.961Z,86.13
2018-11-07T17:13:11.966Z,87.04
2018-11-07T17:15:39.929Z,87.16
2018-11-07T17:18:07.870Z,88.44
2018-11-07T17:20:35.885Z,87.23
2018-11-07T17:23:04.271Z,86.90
2018-11-07T17:25:32.356Z,87.25
2018-11-07T17:28:00.412Z,87.51
2018-11-07T17:30:28.528Z,89.06
2018-11-07T17:32:56.682Z,89.46
2018-11-07T17:35:24.756Z,90.06
2018-11-07T17:37:52.837Z,91.25
2018-11-07T17:40:22.273Z,90.49
2018-11-07T17:42:50.813Z,92.10
2018-11-07T17:45:19.828Z,92.80
2018-11-07T17:47:48.834Z,92.45
2018-11-07T17:50:17.775Z,93.47
2018-11-07T17:52:46.093Z,93.52
2018-11-07T17:55:16.071Z,93.40
2018-11-07T17:57:44.207Z,93.78
2018-11-07T18:00:20.905Z,94.50
2018-11-07T18:02:49.169Z,95.15
2018-11-07T18:05:17.537Z,96.14
2018-11-07T18:07:45.941Z,95.40
2018-11-07T18:10:15.869Z,95.98
2018-11-07T18:12:44.452Z,96.72
2018-11-07T18:15:12.961Z,97.22
2018-11-07T18:17:41.443Z,98.12
2018-11-07T18:20:11.188Z,98.15
2018-11-07T18:22:39.557Z,98.95
2018-11-07T18:25:09.473Z,98.89
2018-11-07T18:27:37.910Z,98.94
2018-11-07T18:30:07.514Z,98.74
2018-11-07T18:32:35.730Z,98.70
2018-11-07T18:35:03.976Z,98.63
2018-11-07T18:37:32.209Z,99.75
2018-11-07T18:40:00.394Z,100.00
2018-11-07T18:42:28.619Z,99.74
2018-11-07T18:44:56.808Z,100.00
2018-11-07T18:47:25.067Z,100.00
2018-11-07T18:49:53.365Z,100.00
2018-11-07T18:52:21.660Z,100.00
2018-11-07T18:54:50.596Z,100.00
2018-11-07T18:57:18.849Z,100.00
2018-11-07T18:59:47.109Z,100.00
2018-11-07T19:02:15.316Z,100.00
2018-11-07T19:04:43.641Z,100.00
2018-11-07T19:07:11.839Z,100.00
2018-11-07T19:09:40.315Z,100.00
2018-11-07T19:12:08.681Z,100.00
2018-11-07T19:14:37.034Z,100.00
2018-11-07T19:17:05.312Z,100.00
2018-11-07T19:19:33.462Z,100.00
2018-11-07T19:22:01.644Z,100.00
2018-11-07T19:24:30.036Z,100.00
2018-11-07T19:26:58.114Z,100.00
2018-11-07T19:29:26.223Z,100.00
2018-11-07T19:31:54.404Z,100.00
2018-11-07T19:34:22.612Z,100.00
2018-11-07T19:36:50.698Z,100.00
2018-11-07T19:39:18.851Z,100.00
2018-11-07T19:41:47.130Z,100.00
2018-11-07T19:44:15.234Z,100.00
2018-11-07T19:46:43.466Z,100.00
2018-11-07T19:49:11.644Z,100.00
2018-11-07T19:51:40.146Z,100.00
2018-11-07T19:54:08.331Z,100.00
2018-11-07T19:56:36.550Z,100.00
2018-11-07T19:59:04.910Z,100.00
2018-11-07T20:01:32.987Z,100.00
2018-11-07T20:04:01.167Z,100.00
2018-11-07T20:06:29.659Z,100.00
2018-11-07T20:08:58.080Z,100.00
2018-11-07T20:11:26.315Z,100.00
2018-11-07T20:13:54.505Z,100.00
2018-11-07T20:16:22.751Z,100.00
2018-11-07T20:18:50.904Z,100.00
2018-11-07T20:21:18.996Z,100.00
2018-11-07T20:23:47.099Z,100.00
2018-11-07T20:26:15.301Z,100.00
2018-11-07T20:28:43.714Z,100.00
2018-11-07T20:31:11.816Z,100.00
2018-11-07T20:33:39.982Z,100.00
2018-11-07T20:36:08.236Z,100.00
2018-11-07T20:38:36.447Z,100.00
2018-11-07T20:41:05.220Z,100.00
2018-11-07T20:43:33.352Z,100.00
2018-11-07T20:46:01.477Z,100.00
2018-11-07T20:48:29.620Z,100.00
2018-11-07T20:50:57.723Z,100.00
2018-11-07T20:53:25.994Z,100.00
2018-11-07T20:55:54.063Z,100.00
2018-11-07T20:58:22.139Z,100.00
2018-11-07T21:00:50.293Z,100.00
2018-11-07T21:03:18.344Z,100.00
2018-11-07T21:05:46.447Z,100.00
2018-11-07T21:08:14.595Z,100.00
2018-11-07T21:10:42.709Z,100.00
2018-11-07T21:13:11.057Z,100.00
2018-11-07T21:15:39.366Z,100.00
2018-11-07T21:18:07.459Z,100.00
2018-11-07T21:20:35.592Z,100.00
2018-11-07T21:23:03.734Z,100.00
2018-11-07T21:25:31.934Z,100.00
2018-11-07T21:28:00.097Z,100.00
2018-11-07T21:30:28.192Z,100.00
2018-11-07T21:32:56.369Z,100.00
2018-11-07T21:35:24.508Z,100.00
2018-11-07T21:37:52.601Z,100.00
2018-11-07T21:40:20.804Z,100.00
2018-11-07T21:42:48.884Z,100.00
2018-11-07T21:45:16.992Z,100.00
2018-11-07T21:47:45.040Z,100.00
2018-11-07T21:50:14.595Z,100.00
2018-11-07T21:52:42.944Z,100.00
2018-11-07T21:55:11.235Z,100.00
2018-11-07T21:57:39.680Z,100.00
2018-11-07T22:00:10.719Z,100.00
2018-11-07T22:02:38.981Z,100.00
2018-11-07T22:05:08.017Z,100.00
2018-11-07T22:07:36.454Z,100.00
2018-11-07T22:10:05.075Z,100.00
2018-11-07T22:12:33.151Z,100.00
2018-11-07T22:15:01.257Z,100.00
2018-11-07T22:17:29.375Z,100.00
2018-11-07T22:19:57.539Z,100.00
2018-11-07T22:22:25.597Z,100.00
2018-11-07T22:24:53.692Z,100.00
2018-11-07T22:27:22.184Z,100.00
2018-11-07T22:29:50.467Z,100.00
2018-11-07T22:32:18.585Z,100.00
2018-11-07T22:34:46.797Z,100.00
2018-11-07T22:37:14.990Z,100.00
2018-11-07T22:39:43.028Z,100.00
2018-11-07T22:42:11.116Z,100.00
2018-11-07T22:44:39.286Z,100.00
2018-11-07T22:47:07.398Z,100.00
2018-11-07T22:49:35.454Z,100.00
2018-11-07T22:52:03.577Z,100.00
2018-11-07T22:54:31.674Z,100.00
2018-11-07T22:56:59.886Z,100.00
2018-11-07T22:59:28.026Z,100.00
2018-11-07T23:01:56.164Z,100.00
2018-11-07T23:04:24.267Z,100.00
2018-11-07T23:06:52.477Z,100.00
2018-11-07T23:09:20.710Z,100.00
2018-11-07T23:11:48.947Z,100.00
2018-11-07T23:14:17.154Z,100.00
2018-11-07T23:16:45.420Z,100.00
2018-11-07T23:19:13.740Z,100.00
2018-11-07T23:21:41.922Z,100.00
2018-11-07T23:24:10.119Z,100.00
2018-11-07T23:26:38.378Z,100.00
2018-11-07T23:29:06.540Z,100.00
2018-11-07T23:31:34.813Z,100.00
2018-11-07T23:34:03.020Z,100.00
2018-11-07T23:36:31.469Z,100.00
2018-11-07T23:38:59.650Z,100.00
2018-11-07T23:41:27.874Z,100.00
2018-11-07T23:43:56.178Z,100.00
2018-11-07T23:46:24.354Z,100.00
2018-11-07T23:48:52.409Z,100.00
2018-11-07T23:51:20.557Z,100.00
2018-11-07T23:53:48.560Z,100.00
2018-11-07T23:56:16.664Z,100.00
2018-11-07T23:58:44.705Z,100.00
